Time;durP1;ratioP1;P1;durP2;ratioP2;P2;SDS_P1;SDS_P2;PMS_P1;PMS_P2;Temp;Humidity;BMP_temperature;BMP_pressure;BME280_temperature;BME280_humidity;BME280_pressure;Samples;Min_cycle;Max_cycle;Signal;HPM_P1;HPM_P2
2023/05/27 00:02:00;;;;;;;8.13;5.45;;;13.10;99.90;;;;;;5040579;28;20052;-81
2023/05/27 00:04:26;;;;;;;7.65;4.88;;;13.20;99.90;;;;;;5035220;28;20029;-81
2023/05/27 00:06:52;;;;;;;9.43;5.28;;;13.20;99.90;;;;;;5041499;28;20485;-81
2023/05/27 00:09:17;;;;;;;10.93;5.38;;;13.10;99.90;;;;;;5038209;28;20034;-80
2023/05/27 00:11:43;;;;;;;9.48;5.32;;;13.10;99.90;;;;;;5032294;28;20042;-81
2023/05/27 00:14:09;;;;;;;10.90;5.50;;;13.10;99.90;;;;;;5037094;28;20470;-81
2023/05/27 00:16:36;;;;;;;9.23;5.57;;;13.00;99.90;;;;;;5041516;28;20041;-81
2023/05/27 00:19:02;;;;;;;8.57;5.93;;;13.00;99.90;;;;;;5039544;28;20021;-81
2023/05/27 00:21:28;;;;;;;7.90;5.20;;;12.90;99.90;;;;;;5038210;28;20052;-80
2023/05/27 00:23:53;;;;;;;9.85;5.32;;;12.80;99.90;;;;;;5035998;28;20081;-80
2023/05/27 00:26:19;;;;;;;8.20;5.05;;;12.70;99.90;;;;;;5034815;28;20065;-81
2023/05/27 00:28:45;;;;;;;9.63;5.70;;;12.60;99.90;;;;;;5041003;28;20045;-81
2023/05/27 00:31:10;;;;;;;8.88;5.38;;;12.50;99.90;;;;;;5037966;28;20064;-81
2023/05/27 00:33:36;;;;;;;8.70;5.43;;;12.50;99.90;;;;;;5033783;28;20040;-81
2023/05/27 00:36:02;;;;;;;9.57;5.20;;;12.40;99.90;;;;;;5037074;28;20053;-80
2023/05/27 00:38:28;;;;;;;11.90;5.63;;;12.40;99.90;;;;;;5036928;28;20040;-80
2023/05/27 00:40:53;;;;;;;7.47;5.35;;;12.50;99.90;;;;;;5042728;28;20041;-81
2023/05/27 00:43:19;;;;;;;9.35;5.30;;;12.40;99.90;;;;;;5020657;28;20037;-81
2023/05/27 00:45:45;;;;;;;10.25;6.40;;;12.50;99.90;;;;;;5045074;28;20033;-81
2023/05/27 00:48:11;;;;;;;6.78;5.22;;;12.40;99.90;;;;;;5036267;28;20033;-81
2023/05/27 00:50:36;;;;;;;12.38;5.47;;;12.50;99.90;;;;;;5035283;28;20067;-80
2023/05/27 00:53:02;;;;;;;8.95;6.07;;;12.50;99.90;;;;;;5042938;28;20030;-81
2023/05/27 00:55:28;;;;;;;6.82;5.18;;;12.40;99.90;;;;;;5040245;28;20032;-80
2023/05/27 00:57:54;;;;;;;7.72;5.18;;;12.30;99.90;;;;;;5035558;28;20025;-83
2023/05/27 01:00:23;;;;;;;6.60;5.47;;;12.30;99.90;;;;;;5034945;28;20141;-75
2023/05/27 01:02:50;;;;;;;8.52;5.28;;;12.30;99.90;;;;;;5036535;28;20036;-75
2023/05/27 01:05:17;;;;;;;9.27;5.18;;;12.10;99.90;;;;;;5034092;28;20025;-75
2023/05/27 01:08:21;;;;;;;10.55;5.63;;;12.10;99.90;;;;;;5033948;28;20153;-74
2023/05/27 01:10:52;;;;;;;8.25;4.75;;;12.00;99.90;;;;;;4997483;28;20045;-74
2023/05/27 01:13:29;;;;;;;8.20;4.95;;;11.90;99.90;;;;;;5033283;28;20030;-75
2023/05/27 01:16:05;;;;;;;11.75;5.30;;;11.80;99.90;;;;;;5037269;28;20052;-75
2023/05/27 01:18:33;;;;;;;12.52;6.35;;;11.80;99.90;;;;;;5036210;28;20061;-74
2023/05/27 01:21:06;;;;;;;8.27;4.83;;;11.80;99.90;;;;;;5032853;28;20125;-73
2023/05/27 01:23:32;;;;;;;8.02;4.85;;;11.80;99.90;;;;;;5035250;28;20025;-74
2023/05/27 01:25:58;;;;;;;9.48;5.55;;;11.80;99.90;;;;;;5031640;28;20051;-74
2023/05/27 01:28:24;;;;;;;9.63;5.03;;;11.80;99.90;;;;;;5034111;28;20045;-74
2023/05/27 01:30:54;;;;;;;8.00;5.18;;;11.70;99.90;;;;;;5033866;28;20481;-75
2023/05/27 01:33:24;;;;;;;7.90;4.85;;;11.70;99.90;;;;;;5031570;28;20457;-74
2023/05/27 01:35:53;;;;;;;7.78;5.45;;;11.70;99.90;;;;;;5033957;28;20036;-75
2023/05/27 01:38:22;;;;;;;11.52;5.07;;;11.60;99.90;;;;;;5030564;28;20043;-74
2023/05/27 01:40:50;;;;;;;8.20;5.03;;;11.60;99.90;;;;;;5034135;28;20120;-75
2023/05/27 01:43:17;;;;;;;8.45;5.05;;;11.50;99.90;;;;;;5030820;28;20094;-76
2023/05/27 01:45:43;;;;;;;8.52;5.03;;;11.50;99.90;;;;;;5041197;28;20373;-75
2023/05/27 01:48:09;;;;;;;7.00;4.70;;;11.50;99.90;;;;;;5038779;28;20068;-75
2023/05/27 01:50:35;;;;;;;12.32;5.72;;;11.50;99.90;;;;;;5038032;28;20033;-74
2023/05/27 01:53:03;;;;;;;9.63;5.30;;;11.50;99.90;;;;;;5029274;28;20040;-75
2023/05/27 01:55:30;;;;;;;9.35;4.97;;;11.50;99.90;;;;;;5035221;28;20104;-74
2023/05/27 01:57:56;;;;;;;8.13;4.82;;;11.50;99.90;;;;;;5036053;28;20029;-74
2023/05/27 02:00:21;;;;;;;11.77;5.18;;;11.50;99.90;;;;;;5034150;28;20044;-75
2023/05/27 02:02:47;;;;;;;8.13;4.43;;;11.40;99.90;;;;;;5032430;28;20108;-74
2023/05/27 02:05:13;;;;;;;6.63;4.38;;;11.40;99.90;;;;;;5035392;28;20034;-74
2023/05/27 02:07:38;;;;;;;9.70;4.82;;;11.40;99.90;;;;;;5032219;28;20045;-74
2023/05/27 02:10:05;;;;;;;7.93;4.95;;;11.40;99.90;;;;;;5032814;28;20040;-75
2023/05/27 02:12:30;;;;;;;10.05;4.65;;;11.40;99.90;;;;;;5035197;28;20079;-75
2023/05/27 02:14:56;;;;;;;9.38;4.65;;;11.40;99.90;;;;;;5038425;28;20029;-75
2023/05/27 02:17:24;;;;;;;6.32;4.50;;;11.40;99.90;;;;;;5038496;28;20034;-75
2023/05/27 02:19:50;;;;;;;12.35;5.45;;;11.40;99.90;;;;;;5016629;28;20132;-75
2023/05/27 02:22:15;;;;;;;8.23;4.25;;;11.40;99.90;;;;;;5038290;28;20145;-75
2023/05/27 02:24:41;;;;;;;6.70;4.90;;;11.40;99.90;;;;;;5018307;28;20060;-75
2023/05/27 02:27:06;;;;;;;7.28;4.82;;;11.30;99.90;;;;;;5041015;28;20056;-74
2023/05/27 02:29:32;;;;;;;8.70;4.60;;;11.20;99.90;;;;;;5035556;28;20060;-75
2023/05/27 02:31:58;;;;;;;7.93;4.72;;;11.10;99.90;;;;;;5035194;28;20037;-74
2023/05/27 02:34:23;;;;;;;12.40;5.43;;;11.10;99.90;;;;;;5037556;28;20036;-75
2023/05/27 02:36:49;;;;;;;10.45;4.78;;;11.20;99.90;;;;;;5039128;28;20072;-75
2023/05/27 02:39:15;;;;;;;7.43;4.90;;;11.20;99.90;;;;;;5038640;28;20068;-74
2023/05/27 02:41:40;;;;;;;7.65;4.45;;;11.10;99.90;;;;;;5036966;28;20083;-75
2023/05/27 02:44:06;;;;;;;9.38;4.38;;;11.00;99.90;;;;;;5035879;28;20029;-75
2023/05/27 02:46:31;;;;;;;8.57;4.75;;;10.90;99.90;;;;;;5036255;28;20540;-74
2023/05/27 02:48:57;;;;;;;10.68;4.57;;;11.00;99.90;;;;;;5040262;28;20091;-74
2023/05/27 02:51:23;;;;;;;9.70;4.80;;;11.10;99.90;;;;;;5039542;28;20470;-74
2023/05/27 02:53:50;;;;;;;8.57;4.75;;;11.10;99.90;;;;;;5034980;28;20025;-74
2023/05/27 02:56:16;;;;;;;7.25;4.45;;;11.10;99.90;;;;;;5040487;28;20112;-75
2023/05/27 02:58:42;;;;;;;7.43;4.22;;;11.10;99.90;;;;;;5035714;28;20033;-74
2023/05/27 03:01:07;;;;;;;8.45;4.25;;;11.00;99.90;;;;;;5032729;28;20099;-74
2023/05/27 03:03:33;;;;;;;9.73;4.57;;;11.00;99.90;;;;;;5036416;28;20151;-74
2023/05/27 03:05:59;;;;;;;8.20;4.80;;;11.10;99.90;;;;;;5037663;28;20060;-74
2023/05/27 03:08:24;;;;;;;11.93;4.65;;;11.00;99.90;;;;;;5039776;28;20045;-74
2023/05/27 03:10:50;;;;;;;8.23;4.43;;;11.10;99.90;;;;;;5036036;28;20040;-74
2023/05/27 03:13:16;;;;;;;7.68;4.00;;;11.00;99.90;;;;;;5035435;28;20036;-74
2023/05/27 03:15:41;;;;;;;8.75;4.35;;;11.10;99.90;;;;;;5036649;28;20049;-75
2023/05/27 03:18:07;;;;;;;8.23;4.72;;;11.10;99.90;;;;;;5042493;28;20056;-75
2023/05/27 03:20:32;;;;;;;7.53;3.85;;;11.10;99.90;;;;;;5036241;28;20037;-75
2023/05/27 03:22:58;;;;;;;8.15;3.72;;;11.10;99.90;;;;;;5036339;28;20029;-75
2023/05/27 03:25:24;;;;;;;8.10;4.32;;;11.10;99.90;;;;;;5034947;28;20041;-75
2023/05/27 03:27:49;;;;;;;11.57;4.35;;;11.10;99.90;;;;;;5030984;28;20037;-75
2023/05/27 03:30:15;;;;;;;9.18;4.40;;;11.10;99.90;;;;;;5033065;28;20033;-77
2023/05/27 03:32:41;;;;;;;9.60;4.30;;;11.10;99.90;;;;;;5035776;28;20086;-76
2023/05/27 03:35:07;;;;;;;8.82;4.28;;;11.10;99.90;;;;;;5040665;28;20033;-75
2023/05/27 03:37:33;;;;;;;9.48;4.55;;;11.10;99.90;;;;;;5035147;28;20037;-74
2023/05/27 03:39:58;;;;;;;10.18;4.35;;;11.10;99.90;;;;;;5034809;28;20523;-75
2023/05/27 03:42:24;;;;;;;10.70;4.55;;;11.10;99.90;;;;;;5045828;28;20469;-75
2023/05/27 03:44:50;;;;;;;9.75;4.28;;;11.10;99.90;;;;;;5037222;28;20093;-75
2023/05/27 03:47:20;;;;;;;7.25;3.97;;;11.10;99.90;;;;;;5033137;28;20034;-74
2023/05/27 03:49:46;;;;;;;7.47;3.80;;;11.10;99.90;;;;;;5035945;28;20788;-75
2023/05/27 03:52:11;;;;;;;9.30;4.30;;;11.20;99.90;;;;;;5037977;28;20052;-74
2023/05/27 03:54:37;;;;;;;9.50;4.28;;;11.10;99.90;;;;;;5033516;28;20038;-74
2023/05/27 03:57:03;;;;;;;10.23;4.07;;;11.10;99.90;;;;;;5035175;28;20026;-75
2023/05/27 03:59:28;;;;;;;6.47;4.05;;;11.00;99.90;;;;;;5019478;28;20055;-75
2023/05/27 04:01:54;;;;;;;9.57;4.00;;;10.90;99.90;;;;;;5036604;28;20041;-75
2023/05/27 04:04:19;;;;;;;7.07;4.13;;;11.00;99.90;;;;;;5035337;28;20025;-75
2023/05/27 04:06:45;;;;;;;9.38;4.03;;;10.90;99.90;;;;;;5033549;28;20056;-76
2023/05/27 04:09:11;;;;;;;9.82;4.55;;;10.90;99.90;;;;;;5023505;28;20029;-75
2023/05/27 04:11:36;;;;;;;7.75;4.30;;;11.10;99.90;;;;;;5018880;28;20040;-75
2023/05/27 04:14:02;;;;;;;12.27;4.35;;;11.00;99.90;;;;;;5032951;28;20034;-75
2023/05/27 04:16:30;;;;;;;8.93;4.35;;;11.00;99.90;;;;;;5036414;28;20781;-75
2023/05/27 04:18:56;;;;;;;10.25;3.97;;;11.00;99.90;;;;;;5035431;28;20079;-75
2023/05/27 04:21:22;;;;;;;8.30;3.92;;;11.10;99.90;;;;;;5018772;28;20034;-75
2023/05/27 04:23:48;;;;;;;8.63;4.00;;;11.00;99.90;;;;;;5033294;28;20049;-75
2023/05/27 04:26:14;;;;;;;9.65;3.47;;;11.00;99.90;;;;;;5033255;28;20531;-76
2023/05/27 04:28:40;;;;;;;8.50;3.17;;;11.10;99.90;;;;;;5032219;28;20041;-74
2023/05/27 04:31:12;;;;;;;8.25;4.03;;;11.20;99.90;;;;;;5031512;28;20603;-75
2023/05/27 04:33:39;;;;;;;7.75;3.45;;;11.20;99.90;;;;;;5036676;28;20064;-74
2023/05/27 04:36:05;;;;;;;7.13;3.87;;;11.20;99.90;;;;;;5034705;28;20101;-74
2023/05/27 04:38:31;;;;;;;7.28;3.72;;;11.20;99.90;;;;;;5038997;28;20033;-73
2023/05/27 04:40:58;;;;;;;7.60;3.42;;;11.20;99.90;;;;;;5033844;28;20489;-75
2023/05/27 04:43:26;;;;;;;10.63;4.20;;;11.30;99.90;;;;;;5034506;28;20105;-75
2023/05/27 04:45:51;;;;;;;6.60;4.20;;;11.40;99.90;;;;;;5035424;28;20030;-74
2023/05/27 04:48:17;;;;;;;5.70;3.72;;;11.30;99.90;;;;;;5018413;28;20308;-74
2023/05/27 04:50:43;;;;;;;6.25;3.78;;;11.40;99.90;;;;;;5038136;28;20033;-74
2023/05/27 04:53:08;;;;;;;8.80;4.03;;;11.30;99.90;;;;;;5034178;28;20033;-74
2023/05/27 04:55:35;;;;;;;8.98;4.00;;;11.40;99.90;;;;;;5032481;28;20104;-75
2023/05/27 04:58:05;;;;;;;10.90;4.07;;;11.50;99.90;;;;;;5035838;28;20453;-75
2023/05/27 05:00:49;;;;;;;9.40;3.83;;;11.50;99.90;;;;;;5034499;28;20029;-75
2023/05/27 05:03:39;;;;;;;5.63;3.75;;;11.60;99.90;;;;;;5029102;28;20041;-75
2023/05/27 05:06:02;;;;;;;9.05;3.95;;;11.70;99.90;;;;;;5033231;28;20038;-73
2023/05/27 05:08:28;;;;;;;10.38;4.05;;;11.90;99.90;;;;;;5034846;28;20041;-74
2023/05/27 05:10:54;;;;;;;8.68;3.35;;;12.00;99.90;;;;;;5033466;28;20037;-74
2023/05/27 05:13:20;;;;;;;8.38;3.72;;;12.10;99.90;;;;;;5032666;28;20112;-75
2023/05/27 05:15:45;;;;;;;8.88;3.90;;;12.10;99.90;;;;;;5035473;28;20033;-75
2023/05/27 05:18:11;;;;;;;5.55;3.38;;;12.20;99.90;;;;;;5034582;28;20060;-74
2023/05/27 05:20:37;;;;;;;10.95;4.15;;;12.20;99.90;;;;;;5016082;28;20034;-75
2023/05/27 05:23:03;;;;;;;7.35;3.67;;;12.30;99.90;;;;;;5019269;28;20032;-75
2023/05/27 05:25:35;;;;;;;10.70;3.83;;;12.40;99.90;;;;;;5034823;28;20366;-75
2023/05/27 05:28:00;;;;;;;8.15;3.53;;;12.60;99.90;;;;;;5034184;28;20041;-75
2023/05/27 05:30:26;;;;;;;12.70;3.95;;;12.60;99.90;;;;;;5034216;28;20033;-75
2023/05/27 05:32:52;;;;;;;9.32;3.50;;;12.70;99.90;;;;;;5030930;28;20055;-75
2023/05/27 05:35:17;;;;;;;11.32;3.83;;;12.70;99.90;;;;;;5031457;28;20038;-75
2023/05/27 05:37:43;;;;;;;11.05;3.85;;;12.80;99.90;;;;;;5027752;28;20568;-75
2023/05/27 05:40:16;;;;;;;7.65;3.35;;;12.90;99.90;;;;;;5031997;28;20040;-76
2023/05/27 05:42:41;;;;;;;9.27;3.53;;;13.00;99.90;;;;;;5034250;28;20436;-75
2023/05/27 05:45:08;;;;;;;8.93;3.63;;;13.10;99.90;;;;;;5036572;28;20047;-75
2023/05/27 05:47:33;;;;;;;8.10;3.75;;;13.20;99.90;;;;;;5035151;28;20045;-76
2023/05/27 05:49:59;;;;;;;9.18;3.30;;;13.30;99.90;;;;;;5033186;28;20033;-74
2023/05/27 05:52:25;;;;;;;7.57;3.80;;;13.40;99.90;;;;;;5033346;28;20035;-74
2023/05/27 05:54:51;;;;;;;10.80;3.80;;;13.50;99.90;;;;;;5041931;28;20033;-75
2023/05/27 05:57:16;;;;;;;9.05;3.70;;;13.70;99.90;;;;;;5037701;28;20033;-75
2023/05/27 05:59:42;;;;;;;8.68;3.88;;;13.80;99.90;;;;;;5038359;28;20049;-76
2023/05/27 06:02:08;;;;;;;10.38;4.00;;;13.80;99.90;;;;;;5033313;28;20034;-75
2023/05/27 06:04:33;;;;;;;12.40;4.25;;;13.90;99.90;;;;;;5035641;28;20033;-75
2023/05/27 06:06:59;;;;;;;11.38;3.75;;;14.00;99.90;;;;;;5035456;28;20561;-75
2023/05/27 06:09:25;;;;;;;9.07;3.58;;;14.00;99.90;;;;;;5039797;28;20034;-75
2023/05/27 06:11:53;;;;;;;10.52;3.85;;;14.10;99.90;;;;;;5037342;28;20032;-75
2023/05/27 06:14:19;;;;;;;8.60;3.60;;;14.20;99.90;;;;;;5036710;28;20784;-75
2023/05/27 06:16:48;;;;;;;6.70;3.75;;;14.40;99.90;;;;;;5030647;28;20104;-75
2023/05/27 06:19:14;;;;;;;8.10;3.22;;;14.50;99.90;;;;;;5025717;28;20153;-75
2023/05/27 06:21:41;;;;;;;8.38;3.50;;;14.50;99.90;;;;;;5039440;28;20065;-75
2023/05/27 06:24:07;;;;;;;7.60;4.10;;;14.60;99.90;;;;;;5019244;28;20026;-75
2023/05/27 06:26:33;;;;;;;6.63;3.90;;;14.70;99.90;;;;;;5037102;28;20140;-75
2023/05/27 06:28:59;;;;;;;10.85;4.07;;;14.70;99.90;;;;;;5036745;28;20124;-75
2023/05/27 06:31:26;;;;;;;9.70;3.72;;;14.90;99.90;;;;;;5039171;28;20156;-75
2023/05/27 06:33:53;;;;;;;7.63;4.07;;;15.00;99.90;;;;;;5036484;28;20103;-75
2023/05/27 06:36:18;;;;;;;8.20;3.65;;;15.10;99.90;;;;;;5036871;28;20052;-75
2023/05/27 06:38:45;;;;;;;9.30;3.85;;;15.20;99.90;;;;;;5020440;28;20572;-77
2023/05/27 06:41:11;;;;;;;11.18;4.43;;;15.20;99.90;;;;;;5023752;28;20056;-74
2023/05/27 06:43:36;;;;;;;8.55;3.88;;;15.20;99.90;;;;;;5031904;28;20033;-74
2023/05/27 06:46:02;;;;;;;6.78;3.88;;;15.30;99.90;;;;;;5040943;28;20052;-75
2023/05/27 06:48:28;;;;;;;9.57;4.00;;;15.40;99.90;;;;;;5020671;28;20116;-74
2023/05/27 06:50:53;;;;;;;8.18;4.47;;;15.60;99.90;;;;;;5034235;28;20049;-75
2023/05/27 06:53:20;;;;;;;8.05;3.95;;;15.80;99.90;;;;;;5039559;28;20541;-75
2023/05/27 06:55:46;;;;;;;8.85;4.63;;;15.80;99.90;;;;;;5020802;28;20121;-74
2023/05/27 06:58:14;;;;;;;8.70;3.90;;;15.90;99.90;;;;;;5035684;28;20166;-75
2023/05/27 07:00:40;;;;;;;8.90;4.00;;;16.00;99.90;;;;;;5015339;28;20623;-74
2023/05/27 07:03:09;;;;;;;8.38;3.70;;;16.00;99.90;;;;;;5035577;28;20026;-75
2023/05/27 07:05:38;;;;;;;8.23;4.03;;;16.10;99.90;;;;;;5036154;28;20088;-75
2023/05/27 07:08:05;;;;;;;7.80;3.85;;;16.00;99.90;;;;;;5034253;28;20033;-75
2023/05/27 07:10:31;;;;;;;11.05;4.45;;;16.00;99.90;;;;;;5041959;28;20395;-74
2023/05/27 07:13:02;;;;;;;8.15;3.45;;;16.10;99.90;;;;;;5033967;28;20028;-76
2023/05/27 07:15:31;;;;;;;12.32;4.50;;;16.20;99.90;;;;;;5043988;28;20021;-74
2023/05/27 07:17:59;;;;;;;7.07;3.35;;;16.40;99.90;;;;;;5034949;28;20032;-74
2023/05/27 07:20:46;;;;;;;9.85;4.00;;;16.30;99.90;;;;;;5034988;28;20120;-75
2023/05/27 07:23:20;;;;;;;9.93;4.05;;;16.30;99.90;;;;;;5029825;28;20076;-74
2023/05/27 07:25:45;;;;;;;8.88;4.35;;;16.50;99.90;;;;;;5036830;28;20098;-75
2023/05/27 07:28:11;;;;;;;9.00;3.78;;;16.60;99.90;;;;;;5034551;28;20045;-75
2023/05/27 07:30:38;;;;;;;8.55;3.72;;;16.80;99.90;;;;;;5033097;28;20029;-75
2023/05/27 07:33:03;;;;;;;8.48;4.05;;;16.90;99.90;;;;;;5015911;28;20048;-75
2023/05/27 07:35:41;;;;;;;6.85;3.85;;;16.90;99.90;;;;;;5035641;28;20033;-75
2023/05/27 07:41:36;;;;;;;;;;;;;;;;;;;;;
2023/05/27 07:44:02;;;;;;;8.30;4.22;;;17.10;99.90;;;;;;4937536;28;20035;-75
2023/05/27 07:47:01;;;;;;;12.00;4.20;;;17.40;99.90;;;;;;4956142;28;20035;-74
2023/05/27 07:49:40;;;;;;;;;;;;;;;;;;;;;
2023/05/27 07:52:55;;;;;;;8.15;4.05;;;17.40;99.90;;;;;;4911156;28;20047;-74
2023/05/27 08:03:13;;;;;;;;;;;;;;;;;;;;;
2023/05/27 08:06:39;;;;;;;7.85;3.88;;;17.90;99.90;;;;;;4864521;29;20843;-76
2023/05/27 08:09:22;;;;;;;9.98;4.18;;;17.80;99.90;;;;;;4890305;29;20040;-76
2023/05/27 08:12:20;;;;;;;;;;;;;;;;;;;;;
2023/05/27 08:15:49;;;;;;;;;;;;;;;;;;;;;
2023/05/27 08:18:18;;;;;;;11.13;4.40;;;18.20;99.90;;;;;;4999615;28;20141;-79
2023/05/27 08:21:43;;;;;;;18.65;4.25;;;18.20;99.90;;;;;;4999317;28;20015;-84
2023/05/27 08:24:14;;;;;;;6.10;3.70;;;18.30;99.90;;;;;;4985299;28;20046;-83
2023/05/27 08:26:53;;;;;;;10.23;4.10;;;18.30;99.90;;;;;;4998937;28;20125;-81
2023/05/27 08:29:19;;;;;;;13.57;4.35;;;18.70;99.90;;;;;;5002582;28;20041;-71
2023/05/27 08:32:08;;;;;;;6.70;4.03;;;18.80;99.90;;;;;;4995594;28;20407;-73
2023/05/27 08:34:45;;;;;;;6.93;3.90;;;18.90;99.90;;;;;;4993096;28;20066;-74
2023/05/27 08:37:22;;;;;;;7.85;3.90;;;18.90;99.90;;;;;;4991379;28;20041;-74
2023/05/27 08:39:51;;;;;;;9.20;4.13;;;18.80;99.90;;;;;;4992599;28;20036;-74
2023/05/27 08:42:22;;;;;;;8.05;4.15;;;18.90;99.90;;;;;;4994692;28;20599;-73
2023/05/27 08:45:11;;;;;;;11.52;4.28;;;19.00;99.90;;;;;;4990216;28;20023;-74
2023/05/27 08:48:06;;;;;;;11.90;4.60;;;19.10;99.90;;;;;;4989203;28;20506;-73
2023/05/27 08:51:02;;;;;;;9.77;4.15;;;19.10;99.90;;;;;;4982904;28;20034;-73
2023/05/27 08:53:40;;;;;;;;;;;;;;;;;;;;;
2023/05/27 08:56:08;;;;;;;8.60;4.25;;;19.20;99.90;;;;;;4993879;28;20038;-74
2023/05/27 08:58:35;;;;;;;6.70;4.60;;;19.40;99.90;;;;;;4994006;28;20034;-74
2023/05/27 09:01:38;;;;;;;7.38;3.90;;;19.50;99.90;;;;;;4988105;28;20494;-74
2023/05/27 09:04:40;;;;;;;;;;;;;;;;;;;;;
2023/05/27 09:07:07;;;;;;;8.32;4.00;;;19.80;99.90;;;;;;5021774;28;20053;-75
2023/05/27 09:09:33;;;;;;;8.80;4.53;;;19.90;99.90;;;;;;5034895;28;20148;-75
2023/05/27 09:12:10;;;;;;;7.88;4.03;;;19.80;99.90;;;;;;5032688;28;20040;-76
2023/05/27 09:14:42;;;;;;;8.13;4.35;;;19.90;99.90;;;;;;5027594;28;20033;-73
2023/05/27 09:17:49;;;;;;;8.38;3.67;;;19.90;99.90;;;;;;5011891;28;20039;-73
2023/05/27 09:20:26;;;;;;;;;;;;;;;;;;;;;
2023/05/27 09:26:37;;;;;;;8.52;4.15;;;19.80;99.90;;;;;;4947904;28;20039;-74
2023/05/27 09:32:49;;;;;;;7.78;3.60;;;20.00;99.90;;;;;;5027662;28;20064;-75
2023/05/27 09:35:18;;;;;;;8.07;3.80;;;20.10;99.90;;;;;;5021325;28;20048;-75
2023/05/27 09:37:47;;;;;;;7.60;3.90;;;20.00;99.90;;;;;;5034894;28;20061;-71
2023/05/27 09:40:19;;;;;;;11.55;4.22;;;19.90;99.90;;;;;;5032930;28;20029;-70
2023/05/27 09:42:46;;;;;;;7.38;3.80;;;20.10;99.90;;;;;;5033776;28;20037;-69
2023/05/27 09:45:19;;;;;;;6.00;3.60;;;20.20;99.90;;;;;;5002833;28;20044;-73
2023/05/27 09:47:50;;;;;;;8.82;4.28;;;20.10;99.90;;;;;;5039388;28;20037;-74
2023/05/27 09:50:17;;;;;;;10.35;3.83;;;20.20;99.90;;;;;;5036244;28;20026;-75
2023/05/27 09:52:47;;;;;;;10.27;4.22;;;20.20;99.90;;;;;;5037589;28;20025;-77
2023/05/27 09:55:19;;;;;;;10.88;3.70;;;20.40;99.90;;;;;;5037898;28;20030;-76
2023/05/27 09:57:51;;;;;;;9.50;4.47;;;20.50;99.90;;;;;;5018000;28;20110;-71
2023/05/27 10:00:31;;;;;;;8.38;4.05;;;20.40;99.90;;;;;;5007721;28;20040;-74
2023/05/27 10:03:30;;;;;;;8.43;4.50;;;20.40;99.90;;;;;;5035764;28;20060;-76
2023/05/27 10:06:18;;;;;;;8.05;4.05;;;20.70;99.90;;;;;;5007291;28;20097;-76
2023/05/27 10:08:49;;;;;;;12.05;3.75;;;20.70;99.90;;;;;;4991933;28;20511;-73
2023/05/27 10:11:15;;;;;;;6.95;3.85;;;20.70;99.90;;;;;;4998302;28;20216;-72
2023/05/27 10:14:05;;;;;;;6.82;3.45;;;20.80;99.90;;;;;;4996002;28;20034;-72
2023/05/27 10:16:51;;;;;;;10.05;4.55;;;20.70;99.90;;;;;;4995875;28;20052;-72
2023/05/27 10:19:16;;;;;;;7.65;3.60;;;20.70;99.90;;;;;;4993107;28;20038;-73
2023/05/27 10:21:49;;;;;;;7.25;3.67;;;20.70;99.90;;;;;;4993986;28;20364;-74
2023/05/27 10:24:15;;;;;;;7.25;3.40;;;20.60;99.90;;;;;;5002853;28;20450;-73
2023/05/27 10:26:48;;;;;;;6.18;3.70;;;20.70;99.90;;;;;;5000446;28;20030;-75
2023/05/27 10:29:22;;;;;;;11.77;4.55;;;20.90;99.90;;;;;;5006651;28;20061;-75
2023/05/27 10:31:50;;;;;;;7.43;4.05;;;21.00;99.90;;;;;;4994833;28;20061;-75
2023/05/27 10:34:16;;;;;;;8.65;3.83;;;20.80;99.90;;;;;;5000421;28;20026;-79
2023/05/27 10:36:43;;;;;;;8.15;3.88;;;20.90;99.90;;;;;;4996796;28;20066;-79
2023/05/27 10:39:17;;;;;;;7.97;4.03;;;21.00;99.90;;;;;;5004486;28;20097;-82
2023/05/27 10:41:50;;;;;;;5.70;3.92;;;21.10;99.90;;;;;;5002694;28;20367;-79
2023/05/27 10:44:28;;;;;;;8.75;3.85;;;21.10;99.90;;;;;;5006631;28;20053;-80
2023/05/27 10:47:04;;;;;;;;;;;21.10;99.90;;;;;;5005855;28;20042;-79
2023/05/27 10:49:38;;;;;;;6.75;3.70;;;21.00;99.90;;;;;;5005244;28;19913;-79
2023/05/27 10:52:15;;;;;;;5.70;3.30;;;20.90;99.90;;;;;;4998303;28;20030;-79
2023/05/27 10:54:46;;;;;;;9.18;4.43;;;21.00;99.90;;;;;;5002687;28;20030;-82
2023/05/27 10:57:12;;;;;;;9.77;3.80;;;21.20;99.90;;;;;;5002596;28;20101;-75
2023/05/27 10:59:55;;;;;;;9.48;3.80;;;21.10;99.90;;;;;;5002225;28;20380;-79
2023/05/27 11:02:21;;;;;;;8.77;4.00;;;21.50;99.90;;;;;;4997556;28;20824;-78
2023/05/27 11:04:49;;;;;;;12.18;3.72;;;21.00;99.90;;;;;;5000013;28;20058;-78
2023/05/27 11:07:19;;;;;;;9.75;3.78;;;20.90;99.90;;;;;;5031041;28;20414;-77
2023/05/27 11:09:50;;;;;;;10.55;3.53;;;21.00;99.90;;;;;;5036064;28;20491;-76
2023/05/27 11:12:17;;;;;;;6.97;3.75;;;20.80;99.90;;;;;;5040300;28;20040;-75
2023/05/27 11:14:51;;;;;;;8.50;4.00;;;21.10;99.90;;;;;;5036487;28;20068;-76
2023/05/27 11:17:18;;;;;;;9.80;3.83;;;21.00;99.90;;;;;;5035004;28;20018;-76
2023/05/27 11:19:45;;;;;;;10.35;3.88;;;21.20;99.90;;;;;;5038553;28;20057;-75
2023/05/27 11:22:37;;;;;;;;;;;;;;;;;;;;;
2023/05/27 11:25:05;;;;;;;7.75;4.05;;;21.60;99.90;;;;;;5033534;28;20450;-74
2023/05/27 11:27:39;;;;;;;6.85;3.63;;;21.70;99.90;;;;;;5036372;28;20106;-77
2023/05/27 11:30:12;;;;;;;7.88;3.70;;;21.70;99.90;;;;;;5041305;28;20164;-79
2023/05/27 11:32:39;;;;;;;6.85;3.33;;;21.70;99.90;;;;;;5035341;28;20041;-75
2023/05/27 11:35:12;;;;;;;7.80;3.47;;;21.80;99.90;;;;;;5037032;28;20505;-75
2023/05/27 11:37:38;;;;;;;6.13;3.40;;;21.90;99.90;;;;;;5040583;28;20213;-79
2023/05/27 11:40:10;;;;;;;7.30;3.60;;;22.00;99.90;;;;;;5021380;28;20030;-81
2023/05/27 11:42:36;;;;;;;7.80;3.60;;;21.80;99.90;;;;;;5034561;28;20021;-81
2023/05/27 11:45:06;;;;;;;10.70;3.72;;;21.80;99.90;;;;;;5041820;28;20056;-82
2023/05/27 11:47:32;;;;;;;8.30;3.95;;;21.80;99.90;;;;;;5036305;28;20033;-84
2023/05/27 11:49:57;;;;;;;9.27;3.10;;;21.80;99.90;;;;;;5039408;28;20045;-82
2023/05/27 11:52:25;;;;;;;7.93;3.95;;;21.80;99.90;;;;;;5037840;28;20040;-82
2023/05/27 11:54:51;;;;;;;;;;;22.00;99.90;;;;;;5041496;28;20056;-82
2023/05/27 11:57:17;;;;;;;8.23;3.85;;;22.00;99.90;;;;;;5042869;28;19921;-82
2023/05/27 11:59:42;;;;;;;8.05;3.60;;;22.00;99.90;;;;;;5035908;28;20036;-81
2023/05/27 12:02:08;;;;;;;8.43;4.72;;;22.00;99.90;;;;;;5038833;28;20041;-79
2023/05/27 12:04:34;;;;;;;6.10;3.47;;;22.00;99.90;;;;;;5037928;28;20371;-80
2023/05/27 12:07:02;;;;;;;6.00;3.75;;;22.00;99.90;;;;;;5037635;28;20049;-82
2023/05/27 12:09:28;;;;;;;6.55;3.75;;;22.30;99.90;;;;;;5040337;28;20766;-81
2023/05/27 12:11:53;;;;;;;6.50;3.55;;;22.20;99.90;;;;;;5045336;28;20037;-82
2023/05/27 12:14:21;;;;;;;8.45;4.20;;;22.20;99.90;;;;;;5042215;28;20033;-82
2023/05/27 12:16:47;;;;;;;7.32;3.60;;;22.20;99.90;;;;;;5028024;28;20154;-82
2023/05/27 12:19:12;;;;;;;5.93;3.15;;;22.40;99.90;;;;;;5035419;28;20441;-82
2023/05/27 12:21:38;;;;;;;7.85;3.65;;;22.20;99.90;;;;;;5037293;28;20040;-82
2023/05/27 12:24:04;;;;;;;7.00;3.70;;;22.10;99.90;;;;;;5036696;28;20038;-82
2023/05/27 12:26:30;;;;;;;7.40;3.35;;;22.20;99.90;;;;;;5041699;28;20029;-75
2023/05/27 12:28:56;;;;;;;7.38;3.47;;;22.20;99.90;;;;;;5034113;28;20065;-75
2023/05/27 12:31:22;;;;;;;5.78;3.38;;;22.50;99.90;;;;;;5035372;28;20092;-77
2023/05/27 12:33:48;;;;;;;6.75;3.30;;;22.90;99.90;;;;;;5036530;28;20033;-75
2023/05/27 12:36:14;;;;;;;7.70;3.90;;;23.00;99.90;;;;;;5032305;28;20048;-76
2023/05/27 12:38:40;;;;;;;6.95;3.65;;;22.80;99.90;;;;;;5034962;28;20048;-78
2023/05/27 12:41:06;;;;;;;8.10;4.40;;;22.70;99.90;;;;;;5035085;28;20113;-76
2023/05/27 12:43:32;;;;;;;8.63;3.97;;;22.70;99.90;;;;;;5034563;28;20394;-75
2023/05/27 12:45:58;;;;;;;6.32;3.70;;;22.60;99.90;;;;;;5038699;28;20025;-74
2023/05/27 12:48:24;;;;;;;6.63;3.80;;;22.60;99.90;;;;;;5034281;28;20025;-75
2023/05/27 12:50:50;;;;;;;8.02;3.47;;;22.80;99.90;;;;;;5035090;28;20033;-74
2023/05/27 12:53:16;;;;;;;4.95;3.78;;;22.60;99.90;;;;;;5034289;28;20536;-74
2023/05/27 12:55:44;;;;;;;7.15;3.72;;;22.60;99.90;;;;;;5033704;28;20037;-74
2023/05/27 12:58:10;;;;;;;10.60;3.70;;;22.80;99.90;;;;;;5038271;28;20028;-74
2023/05/27 13:00:36;;;;;;;7.45;3.60;;;22.90;99.90;;;;;;5033106;28;20111;-73
2023/05/27 13:03:02;;;;;;;6.97;3.70;;;22.90;99.90;;;;;;5031329;28;20021;-74
2023/05/27 13:05:27;;;;;;;8.43;4.18;;;22.80;99.90;;;;;;5033407;28;20462;-74
2023/05/27 13:07:56;;;;;;;7.05;4.00;;;22.80;99.90;;;;;;5035690;28;20060;-75
2023/05/27 13:10:22;;;;;;;7.10;4.50;;;22.80;99.90;;;;;;5031138;28;20052;-74
2023/05/27 13:12:47;;;;;;;6.22;4.30;;;22.70;99.90;;;;;;5035550;28;20028;-73
2023/05/27 13:15:14;;;;;;;7.50;4.25;;;22.70;99.90;;;;;;5031343;28;20037;-74
2023/05/27 13:17:41;;;;;;;7.45;3.65;;;22.80;99.90;;;;;;5013911;28;20060;-74
2023/05/27 13:20:06;;;;;;;6.75;3.92;;;22.70;99.90;;;;;;5030772;28;20246;-74
2023/05/27 13:22:32;;;;;;;5.82;3.40;;;22.90;99.90;;;;;;5032297;28;20815;-74
2023/05/27 13:24:58;;;;;;;6.40;3.42;;;22.90;99.90;;;;;;5012599;28;20045;-74
2023/05/27 13:27:23;;;;;;;8.65;4.50;;;22.70;99.90;;;;;;5035893;28;20063;-74